sensor_id;sensor_type;location;lat;lon;timestamp;P1;durP1;ratioP1;P2;durP2;ratioP2
47483;SDS011;54076;50.322;18.650;2023-02-20T00:00:53;12.80;;;4.60;;
47483;SDS011;54076;50.322;18.650;2023-02-20T00:05:55;14.10;;;5.00;;
47483;SDS011;54076;50.322;18.650;2023-02-20T00:10:56;14.30;;;5.30;;
47483;SDS011;54076;50.322;18.650;2023-02-20T00:15:57;10.50;;;4.50;;
47483;SDS011;54076;50.322;18.650;2023-02-20T00:20:58;11.10;;;4.00;;
47483;SDS011;54076;50.322;18.650;2023-02-20T00:25:59;13.20;;;4.10;;
47483;SDS011;54076;50.322;18.650;2023-02-20T00:31:01;14.40;;;4.50;;
47483;SDS011;54076;50.322;18.650;2023-02-20T00:36:03;9.90;;;4.40;;
47483;SDS011;54076;50.322;18.650;2023-02-20T00:41:04;12.10;;;4.00;;
47483;SDS011;54076;50.322;18.650;2023-02-20T00:46:06;8.70;;;3.10;;
47483;SDS011;54076;50.322;18.650;2023-02-20T00:51:07;10.70;;;3.80;;
47483;SDS011;54076;50.322;18.650;2023-02-20T00:56:08;10.10;;;3.90;;
47483;SDS011;54076;50.322;18.650;2023-02-20T01:01:09;10.00;;;4.00;;
47483;SDS011;54076;50.322;18.650;2023-02-20T01:06:11;10.80;;;4.20;;
47483;SDS011;54076;50.322;18.650;2023-02-20T01:11:12;9.20;;;3.70;;
47483;SDS011;54076;50.322;18.650;2023-02-20T01:16:13;10.10;;;3.30;;
47483;SDS011;54076;50.322;18.650;2023-02-20T01:21:14;9.20;;;3.70;;
47483;SDS011;54076;50.322;18.650;2023-02-20T01:26:15;11.10;;;3.80;;
47483;SDS011;54076;50.322;18.650;2023-02-20T01:31:17;11.10;;;3.60;;
47483;SDS011;54076;50.322;18.650;2023-02-20T01:36:18;8.30;;;3.50;;
47483;SDS011;54076;50.322;18.650;2023-02-20T01:41:21;10.90;;;3.30;;
47483;SDS011;54076;50.322;18.650;2023-02-20T01:51:33;9.20;;;3.10;;
47483;SDS011;54076;50.322;18.650;2023-02-20T01:56:38;11.30;;;3.30;;
47483;SDS011;54076;50.322;18.650;2023-02-20T02:01:40;8.80;;;3.90;;
47483;SDS011;54076;50.322;18.650;2023-02-20T02:06:44;9.70;;;3.40;;
47483;SDS011;54076;50.322;18.650;2023-02-20T02:11:49;8.90;;;3.40;;
47483;SDS011;54076;50.322;18.650;2023-02-20T02:17:01;7.40;;;3.00;;
47483;SDS011;54076;50.322;18.650;2023-02-20T02:22:59;8.10;;;3.20;;
47483;SDS011;54076;50.322;18.650;2023-02-20T02:45:23;8.60;;;3.40;;
47483;SDS011;54076;50.322;18.650;2023-02-20T02:50:34;8.10;;;3.20;;
47483;SDS011;54076;50.322;18.650;2023-02-20T02:55:38;8.90;;;3.90;;
47483;SDS011;54076;50.322;18.650;2023-02-20T03:00:42;9.70;;;3.60;;
47483;SDS011;54076;50.322;18.650;2023-02-20T03:06:09;10.30;;;3.90;;
47483;SDS011;54076;50.322;18.650;2023-02-20T03:11:17;9.00;;;3.60;;
47483;SDS011;54076;50.322;18.650;2023-02-20T03:16:25;10.00;;;3.80;;
47483;SDS011;54076;50.322;18.650;2023-02-20T03:21:31;7.50;;;2.90;;
47483;SDS011;54076;50.322;18.650;2023-02-20T03:26:35;9.30;;;3.30;;
47483;SDS011;54076;50.322;18.650;2023-02-20T03:31:50;9.00;;;3.30;;
47483;SDS011;54076;50.322;18.650;2023-02-20T03:37:18;9.70;;;3.60;;
47483;SDS011;54076;50.322;18.650;2023-02-20T03:42:41;13.50;;;3.50;;
47483;SDS011;54076;50.322;18.650;2023-02-20T03:48:08;9.50;;;3.00;;
47483;SDS011;54076;50.322;18.650;2023-02-20T03:53:14;10.50;;;3.10;;
47483;SDS011;54076;50.322;18.650;2023-02-20T03:58:15;10.70;;;3.40;;
47483;SDS011;54076;50.322;18.650;2023-02-20T04:03:24;7.30;;;2.80;;
47483;SDS011;54076;50.322;18.650;2023-02-20T04:08:37;11.70;;;3.90;;
47483;SDS011;54076;50.322;18.650;2023-02-20T04:13:38;11.50;;;3.60;;
47483;SDS011;54076;50.322;18.650;2023-02-20T04:18:40;9.80;;;3.60;;
47483;SDS011;54076;50.322;18.650;2023-02-20T04:23:42;8.60;;;3.40;;
47483;SDS011;54076;50.322;18.650;2023-02-20T04:28:46;8.10;;;3.60;;
47483;SDS011;54076;50.322;18.650;2023-02-20T04:33:48;8.80;;;3.50;;
47483;SDS011;54076;50.322;18.650;2023-02-20T04:38:49;8.60;;;3.00;;
47483;SDS011;54076;50.322;18.650;2023-02-20T04:43:50;7.00;;;3.10;;
47483;SDS011;54076;50.322;18.650;2023-02-20T04:49:11;8.30;;;3.50;;
47483;SDS011;54076;50.322;18.650;2023-02-20T04:54:13;8.60;;;3.40;;
47483;SDS011;54076;50.322;18.650;2023-02-20T04:59:14;11.30;;;4.70;;
47483;SDS011;54076;50.322;18.650;2023-02-20T05:04:16;11.00;;;4.10;;
47483;SDS011;54076;50.322;18.650;2023-02-20T05:09:19;10.60;;;4.00;;
47483;SDS011;54076;50.322;18.650;2023-02-20T05:14:21;13.00;;;4.30;;
47483;SDS011;54076;50.322;18.650;2023-02-20T05:19:22;10.70;;;4.10;;
47483;SDS011;54076;50.322;18.650;2023-02-20T05:24:24;12.30;;;4.40;;
47483;SDS011;54076;50.322;18.650;2023-02-20T05:29:25;15.40;;;5.20;;
47483;SDS011;54076;50.322;18.650;2023-02-20T05:34:26;11.60;;;4.70;;
47483;SDS011;54076;50.322;18.650;2023-02-20T05:39:27;12.80;;;5.10;;
47483;SDS011;54076;50.322;18.650;2023-02-20T05:44:28;9.80;;;4.80;;
47483;SDS011;54076;50.322;18.650;2023-02-20T05:49:30;9.60;;;4.30;;
47483;SDS011;54076;50.322;18.650;2023-02-20T05:54:32;11.70;;;4.20;;
47483;SDS011;54076;50.322;18.650;2023-02-20T05:59:33;14.80;;;5.20;;
47483;SDS011;54076;50.322;18.650;2023-02-20T06:04:34;19.40;;;6.50;;
47483;SDS011;54076;50.322;18.650;2023-02-20T06:09:35;18.30;;;6.80;;
47483;SDS011;54076;50.322;18.650;2023-02-20T06:14:36;15.30;;;6.10;;
47483;SDS011;54076;50.322;18.650;2023-02-20T06:19:38;17.50;;;8.30;;
47483;SDS011;54076;50.322;18.650;2023-02-20T06:24:39;20.20;;;9.50;;
47483;SDS011;54076;50.322;18.650;2023-02-20T06:29:40;16.70;;;6.30;;
47483;SDS011;54076;50.322;18.650;2023-02-20T06:34:43;16.70;;;5.60;;
47483;SDS011;54076;50.322;18.650;2023-02-20T06:39:44;17.30;;;7.00;;
47483;SDS011;54076;50.322;18.650;2023-02-20T06:44:47;18.40;;;6.80;;
47483;SDS011;54076;50.322;18.650;2023-02-20T06:49:48;13.90;;;6.40;;
47483;SDS011;54076;50.322;18.650;2023-02-20T06:54:50;12.20;;;6.00;;
47483;SDS011;54076;50.322;18.650;2023-02-20T06:59:52;19.40;;;9.20;;
47483;SDS011;54076;50.322;18.650;2023-02-20T07:04:54;17.60;;;7.30;;
47483;SDS011;54076;50.322;18.650;2023-02-20T07:09:55;19.80;;;8.10;;
47483;SDS011;54076;50.322;18.650;2023-02-20T07:14:56;15.70;;;6.50;;
47483;SDS011;54076;50.322;18.650;2023-02-20T07:19:58;17.10;;;6.10;;
47483;SDS011;54076;50.322;18.650;2023-02-20T07:24:59;15.10;;;6.20;;
47483;SDS011;54076;50.322;18.650;2023-02-20T07:30:00;15.80;;;5.40;;
47483;SDS011;54076;50.322;18.650;2023-02-20T07:35:02;11.60;;;4.80;;
47483;SDS011;54076;50.322;18.650;2023-02-20T07:40:04;9.80;;;4.60;;
47483;SDS011;54076;50.322;18.650;2023-02-20T07:45:05;9.20;;;4.30;;
47483;SDS011;54076;50.322;18.650;2023-02-20T07:50:07;12.20;;;4.70;;
47483;SDS011;54076;50.322;18.650;2023-02-20T07:55:09;7.40;;;4.00;;
47483;SDS011;54076;50.322;18.650;2023-02-20T08:00:17;11.80;;;4.80;;
47483;SDS011;54076;50.322;18.650;2023-02-20T08:05:20;15.30;;;5.70;;
47483;SDS011;54076;50.322;18.650;2023-02-20T08:10:25;13.50;;;6.50;;
47483;SDS011;54076;50.322;18.650;2023-02-20T08:15:27;11.90;;;5.00;;
47483;SDS011;54076;50.322;18.650;2023-02-20T08:20:29;13.10;;;5.80;;
47483;SDS011;54076;50.322;18.650;2023-02-20T08:25:30;13.40;;;5.90;;
47483;SDS011;54076;50.322;18.650;2023-02-20T08:30:32;14.10;;;5.50;;
47483;SDS011;54076;50.322;18.650;2023-02-20T08:35:33;14.30;;;5.80;;
47483;SDS011;54076;50.322;18.650;2023-02-20T08:40:35;14.60;;;6.70;;
47483;SDS011;54076;50.322;18.650;2023-02-20T08:45:36;13.30;;;5.40;;
47483;SDS011;54076;50.322;18.650;2023-02-20T08:50:37;14.60;;;6.00;;
47483;SDS011;54076;50.322;18.650;2023-02-20T08:55:38;14.90;;;6.40;;
47483;SDS011;54076;50.322;18.650;2023-02-20T09:00:40;18.60;;;7.40;;
47483;SDS011;54076;50.322;18.650;2023-02-20T09:05:41;13.10;;;6.10;;
47483;SDS011;54076;50.322;18.650;2023-02-20T09:10:43;12.20;;;6.20;;
47483;SDS011;54076;50.322;18.650;2023-02-20T09:15:44;14.80;;;6.30;;
47483;SDS011;54076;50.322;18.650;2023-02-20T09:20:46;16.20;;;6.60;;
47483;SDS011;54076;50.322;18.650;2023-02-20T09:25:47;14.60;;;6.50;;
47483;SDS011;54076;50.322;18.650;2023-02-20T09:30:49;13.70;;;6.60;;
47483;SDS011;54076;50.322;18.650;2023-02-20T09:35:54;15.60;;;6.30;;
47483;SDS011;54076;50.322;18.650;2023-02-20T09:40:57;18.20;;;7.20;;
47483;SDS011;54076;50.322;18.650;2023-02-20T09:51:15;13.50;;;7.20;;
47483;SDS011;54076;50.322;18.650;2023-02-20T09:56:25;13.00;;;6.30;;
47483;SDS011;54076;50.322;18.650;2023-02-20T10:01:30;13.20;;;6.50;;
47483;SDS011;54076;50.322;18.650;2023-02-20T10:06:34;11.10;;;5.30;;
47483;SDS011;54076;50.322;18.650;2023-02-20T10:11:46;13.30;;;5.80;;
47483;SDS011;54076;50.322;18.650;2023-02-20T10:17:28;10.60;;;5.00;;
47483;SDS011;54076;50.322;18.650;2023-02-20T10:22:38;10.70;;;4.90;;
47483;SDS011;54076;50.322;18.650;2023-02-20T10:38:55;8.80;;;4.50;;
47483;SDS011;54076;50.322;18.650;2023-02-20T10:44:10;8.70;;;4.60;;
47483;SDS011;54076;50.322;18.650;2023-02-20T11:00:45;9.40;;;4.80;;
47483;SDS011;54076;50.322;18.650;2023-02-20T11:05:54;10.60;;;5.20;;
47483;SDS011;54076;50.322;18.650;2023-02-20T11:11:16;9.90;;;4.80;;
47483;SDS011;54076;50.322;18.650;2023-02-20T11:16:31;8.10;;;4.50;;
47483;SDS011;54076;50.322;18.650;2023-02-20T11:21:41;11.00;;;4.70;;
47483;SDS011;54076;50.322;18.650;2023-02-20T11:26:48;9.80;;;5.00;;
47483;SDS011;54076;50.322;18.650;2023-02-20T11:31:53;11.90;;;5.30;;
47483;SDS011;54076;50.322;18.650;2023-02-20T11:36:55;11.60;;;6.30;;
47483;SDS011;54076;50.322;18.650;2023-02-20T11:42:16;12.40;;;5.80;;
47483;SDS011;54076;50.322;18.650;2023-02-20T11:47:26;15.10;;;6.50;;
47483;SDS011;54076;50.322;18.650;2023-02-20T11:52:28;12.10;;;6.00;;
47483;SDS011;54076;50.322;18.650;2023-02-20T11:57:29;14.30;;;5.90;;
47483;SDS011;54076;50.322;18.650;2023-02-20T12:02:30;10.90;;;5.90;;
47483;SDS011;54076;50.322;18.650;2023-02-20T12:12:41;12.20;;;5.50;;
47483;SDS011;54076;50.322;18.650;2023-02-20T13:01:39;9.50;;;5.10;;
47483;SDS011;54076;50.322;18.650;2023-02-20T13:07:09;11.20;;;5.50;;
47483;SDS011;54076;50.322;18.650;2023-02-20T13:12:15;8.60;;;4.60;;
47483;SDS011;54076;50.322;18.650;2023-02-20T13:22:26;11.90;;;4.90;;
47483;SDS011;54076;50.322;18.650;2023-02-20T13:27:30;8.60;;;4.60;;
47483;SDS011;54076;50.322;18.650;2023-02-20T13:32:32;8.50;;;4.60;;
47483;SDS011;54076;50.322;18.650;2023-02-20T13:42:34;8.30;;;4.90;;
47483;SDS011;54076;50.322;18.650;2023-02-20T13:47:36;10.20;;;5.60;;
47483;SDS011;54076;50.322;18.650;2023-02-20T13:52:40;11.80;;;5.40;;
47483;SDS011;54076;50.322;18.650;2023-02-20T14:03:23;10.00;;;5.30;;
47483;SDS011;54076;50.322;18.650;2023-02-20T14:08:28;8.00;;;4.50;;
47483;SDS011;54076;50.322;18.650;2023-02-20T14:13:29;10.30;;;5.10;;
47483;SDS011;54076;50.322;18.650;2023-02-20T14:18:33;9.60;;;4.80;;
47483;SDS011;54076;50.322;18.650;2023-02-20T14:23:35;10.10;;;4.40;;
47483;SDS011;54076;50.322;18.650;2023-02-20T14:28:44;11.40;;;5.40;;
47483;SDS011;54076;50.322;18.650;2023-02-20T14:39:08;11.60;;;5.80;;
47483;SDS011;54076;50.322;18.650;2023-02-20T14:44:18;10.10;;;5.20;;
47483;SDS011;54076;50.322;18.650;2023-02-20T14:49:27;7.10;;;4.40;;
47483;SDS011;54076;50.322;18.650;2023-02-20T14:54:32;13.00;;;5.80;;
47483;SDS011;54076;50.322;18.650;2023-02-20T14:59:35;9.30;;;3.60;;
47483;SDS011;54076;50.322;18.650;2023-02-20T15:04:53;28.10;;;10.70;;
47483;SDS011;54076;50.322;18.650;2023-02-20T15:10:00;13.60;;;6.20;;
47483;SDS011;54076;50.322;18.650;2023-02-20T15:15:10;8.70;;;4.30;;
47483;SDS011;54076;50.322;18.650;2023-02-20T15:25:31;8.30;;;4.10;;
47483;SDS011;54076;50.322;18.650;2023-02-20T15:30:34;7.50;;;4.00;;
47483;SDS011;54076;50.322;18.650;2023-02-20T15:35:35;8.70;;;3.90;;
47483;SDS011;54076;50.322;18.650;2023-02-20T15:40:37;9.40;;;4.00;;
47483;SDS011;54076;50.322;18.650;2023-02-20T15:45:38;6.10;;;3.50;;
47483;SDS011;54076;50.322;18.650;2023-02-20T15:50:40;10.50;;;4.30;;
47483;SDS011;54076;50.322;18.650;2023-02-20T15:55:41;10.70;;;4.80;;
47483;SDS011;54076;50.322;18.650;2023-02-20T16:00:44;8.30;;;3.60;;
47483;SDS011;54076;50.322;18.650;2023-02-20T16:05:45;8.40;;;4.40;;
47483;SDS011;54076;50.322;18.650;2023-02-20T16:10:46;8.60;;;3.90;;
47483;SDS011;54076;50.322;18.650;2023-02-20T16:15:47;9.20;;;4.60;;
47483;SDS011;54076;50.322;18.650;2023-02-20T16:20:50;8.10;;;3.80;;
47483;SDS011;54076;50.322;18.650;2023-02-20T16:25:51;8.30;;;4.20;;
47483;SDS011;54076;50.322;18.650;2023-02-20T16:30:53;6.70;;;3.20;;
47483;SDS011;54076;50.322;18.650;2023-02-20T16:35:54;8.90;;;4.10;;
47483;SDS011;54076;50.322;18.650;2023-02-20T16:40:58;8.40;;;4.00;;
47483;SDS011;54076;50.322;18.650;2023-02-20T16:46:03;9.10;;;4.30;;
47483;SDS011;54076;50.322;18.650;2023-02-20T16:51:04;7.70;;;3.70;;
47483;SDS011;54076;50.322;18.650;2023-02-20T16:56:06;11.20;;;4.00;;
47483;SDS011;54076;50.322;18.650;2023-02-20T17:01:07;9.10;;;4.00;;
47483;SDS011;54076;50.322;18.650;2023-02-20T17:06:09;7.50;;;3.80;;
47483;SDS011;54076;50.322;18.650;2023-02-20T17:11:10;9.30;;;4.20;;
47483;SDS011;54076;50.322;18.650;2023-02-20T17:16:11;9.70;;;4.10;;
47483;SDS011;54076;50.322;18.650;2023-02-20T17:21:13;10.00;;;4.00;;
47483;SDS011;54076;50.322;18.650;2023-02-20T17:26:14;8.10;;;3.70;;
47483;SDS011;54076;50.322;18.650;2023-02-20T17:31:15;9.00;;;3.70;;
47483;SDS011;54076;50.322;18.650;2023-02-20T17:36:16;8.60;;;4.10;;
47483;SDS011;54076;50.322;18.650;2023-02-20T17:41:17;9.40;;;3.70;;
47483;SDS011;54076;50.322;18.650;2023-02-20T17:46:19;8.70;;;3.20;;
47483;SDS011;54076;50.322;18.650;2023-02-20T17:51:20;7.30;;;3.50;;
47483;SDS011;54076;50.322;18.650;2023-02-20T17:56:22;7.20;;;3.10;;
47483;SDS011;54076;50.322;18.650;2023-02-20T18:01:23;10.70;;;3.30;;
47483;SDS011;54076;50.322;18.650;2023-02-20T18:06:27;7.00;;;3.40;;
47483;SDS011;54076;50.322;18.650;2023-02-20T18:11:28;7.40;;;3.70;;
47483;SDS011;54076;50.322;18.650;2023-02-20T18:16:29;8.50;;;3.50;;
47483;SDS011;54076;50.322;18.650;2023-02-20T18:21:31;8.70;;;3.70;;
47483;SDS011;54076;50.322;18.650;2023-02-20T18:26:32;10.50;;;3.90;;
47483;SDS011;54076;50.322;18.650;2023-02-20T18:31:33;8.10;;;3.60;;
47483;SDS011;54076;50.322;18.650;2023-02-20T18:36:35;9.40;;;4.00;;
47483;SDS011;54076;50.322;18.650;2023-02-20T18:41:37;8.00;;;3.90;;
47483;SDS011;54076;50.322;18.650;2023-02-20T18:46:38;9.50;;;4.10;;
47483;SDS011;54076;50.322;18.650;2023-02-20T18:51:41;11.00;;;4.70;;
47483;SDS011;54076;50.322;18.650;2023-02-20T18:56:47;10.30;;;4.30;;
47483;SDS011;54076;50.322;18.650;2023-02-20T19:01:49;8.80;;;4.10;;
47483;SDS011;54076;50.322;18.650;2023-02-20T19:06:50;10.80;;;3.90;;
47483;SDS011;54076;50.322;18.650;2023-02-20T19:11:54;10.50;;;3.70;;
47483;SDS011;54076;50.322;18.650;2023-02-20T19:16:57;7.80;;;3.20;;
47483;SDS011;54076;50.322;18.650;2023-02-20T19:22:00;5.70;;;2.60;;
47483;SDS011;54076;50.322;18.650;2023-02-20T19:27:02;6.30;;;2.80;;
47483;SDS011;54076;50.322;18.650;2023-02-20T19:32:03;5.90;;;2.50;;
47483;SDS011;54076;50.322;18.650;2023-02-20T19:37:04;6.10;;;2.80;;
47483;SDS011;54076;50.322;18.650;2023-02-20T19:42:06;6.30;;;3.00;;
47483;SDS011;54076;50.322;18.650;2023-02-20T19:47:07;5.70;;;3.20;;
47483;SDS011;54076;50.322;18.650;2023-02-20T19:52:08;9.20;;;3.20;;
47483;SDS011;54076;50.322;18.650;2023-02-20T19:57:09;6.30;;;2.60;;
47483;SDS011;54076;50.322;18.650;2023-02-20T20:02:11;5.60;;;2.60;;
47483;SDS011;54076;50.322;18.650;2023-02-20T20:07:13;7.70;;;3.00;;
47483;SDS011;54076;50.322;18.650;2023-02-20T20:12:14;6.50;;;3.10;;
47483;SDS011;54076;50.322;18.650;2023-02-20T20:17:38;6.90;;;2.90;;
47483;SDS011;54076;50.322;18.650;2023-02-20T20:22:39;6.10;;;2.90;;
47483;SDS011;54076;50.322;18.650;2023-02-20T20:27:41;6.50;;;2.60;;
47483;SDS011;54076;50.322;18.650;2023-02-20T20:32:42;6.50;;;2.60;;
47483;SDS011;54076;50.322;18.650;2023-02-20T20:37:44;8.80;;;3.10;;
47483;SDS011;54076;50.322;18.650;2023-02-20T20:42:45;6.50;;;3.10;;
47483;SDS011;54076;50.322;18.650;2023-02-20T20:47:47;5.50;;;3.00;;
47483;SDS011;54076;50.322;18.650;2023-02-20T20:52:48;6.50;;;2.90;;
47483;SDS011;54076;50.322;18.650;2023-02-20T20:57:52;5.10;;;2.70;;
47483;SDS011;54076;50.322;18.650;2023-02-20T21:02:54;6.20;;;2.90;;
47483;SDS011;54076;50.322;18.650;2023-02-20T21:07:57;6.20;;;3.00;;
47483;SDS011;54076;50.322;18.650;2023-02-20T21:12:59;5.40;;;2.70;;
47483;SDS011;54076;50.322;18.650;2023-02-20T21:18:01;6.40;;;2.80;;
47483;SDS011;54076;50.322;18.650;2023-02-20T21:23:03;5.90;;;2.50;;
47483;SDS011;54076;50.322;18.650;2023-02-20T21:28:06;5.50;;;2.50;;
47483;SDS011;54076;50.322;18.650;2023-02-20T21:33:07;5.80;;;2.50;;
47483;SDS011;54076;50.322;18.650;2023-02-20T21:38:08;7.20;;;2.50;;
47483;SDS011;54076;50.322;18.650;2023-02-20T21:43:10;7.30;;;2.60;;
47483;SDS011;54076;50.322;18.650;2023-02-20T21:48:30;6.80;;;2.60;;
47483;SDS011;54076;50.322;18.650;2023-02-20T21:53:31;5.20;;;2.50;;
47483;SDS011;54076;50.322;18.650;2023-02-20T21:58:32;7.90;;;2.90;;
47483;SDS011;54076;50.322;18.650;2023-02-20T22:03:52;6.10;;;2.50;;
47483;SDS011;54076;50.322;18.650;2023-02-20T22:08:53;7.40;;;2.30;;
47483;SDS011;54076;50.322;18.650;2023-02-20T22:14:13;6.90;;;2.40;;
47483;SDS011;54076;50.322;18.650;2023-02-20T22:19:33;7.80;;;2.90;;
47483;SDS011;54076;50.322;18.650;2023-02-20T22:24:53;5.10;;;2.60;;
47483;SDS011;54076;50.322;18.650;2023-02-20T22:30:13;7.20;;;2.70;;
47483;SDS011;54076;50.322;18.650;2023-02-20T22:35:32;7.60;;;2.60;;
47483;SDS011;54076;50.322;18.650;2023-02-20T22:40:52;4.90;;;2.50;;
47483;SDS011;54076;50.322;18.650;2023-02-20T22:46:12;4.90;;;2.60;;
47483;SDS011;54076;50.322;18.650;2023-02-20T22:51:32;7.00;;;3.10;;
47483;SDS011;54076;50.322;18.650;2023-02-20T22:56:51;5.20;;;2.50;;
47483;SDS011;54076;50.322;18.650;2023-02-20T23:02:11;6.00;;;2.30;;
47483;SDS011;54076;50.322;18.650;2023-02-20T23:07:30;5.70;;;2.70;;
47483;SDS011;54076;50.322;18.650;2023-02-20T23:12:50;5.50;;;2.50;;
47483;SDS011;54076;50.322;18.650;2023-02-20T23:18:11;6.60;;;2.90;;
47483;SDS011;54076;50.322;18.650;2023-02-20T23:23:31;6.80;;;2.90;;
47483;SDS011;54076;50.322;18.650;2023-02-20T23:28:51;5.70;;;3.20;;
47483;SDS011;54076;50.322;18.650;2023-02-20T23:34:10;6.20;;;3.20;;
47483;SDS011;54076;50.322;18.650;2023-02-20T23:39:30;6.90;;;3.40;;
47483;SDS011;54076;50.322;18.650;2023-02-20T23:44:50;6.80;;;3.10;;
47483;SDS011;54076;50.322;18.650;2023-02-20T23:50:09;6.10;;;3.10;;
47483;SDS011;54076;50.322;18.650;2023-02-20T23:55:29;6.40;;;3.00;;
